Terminal Aerodrome Forecast
Issued by NWS

Home | Current Version | Previous Version | Text Only | Print | Product List | Glossary On
Versions: 1 2 3 4 5 6 7 8 9 10 11
085
FTUS46 KMTR 252333
TAFSNS
TAF
KSNS 252333Z 2600/2624 26012G17KT P6SM SKC
     FM260200 25011KT P6SM FEW012 SCT100
     FM260500 25006KT P6SM SCT010 SCT020
     FM260800 VRB04KT P6SM BKN010 OVC030
     FM261600 28009KT P6SM FEW010 SCT030 SCT050=

USA.gov is the U.S. government's official web portal to all federal, state and local government web resources and services.